createdAt,value
2023-06-19T00:00:25.860Z,950.65
2023-06-19T00:01:25.627Z,950.64
2023-06-19T00:02:25.606Z,950.64
2023-06-19T00:03:25.601Z,950.60
2023-06-19T00:04:25.628Z,950.67
2023-06-19T00:05:25.519Z,950.65
2023-06-19T00:06:25.501Z,950.67
2023-06-19T00:07:25.476Z,950.66
2023-06-19T00:08:25.475Z,950.65
2023-06-19T00:09:25.474Z,950.64
2023-06-19T00:10:25.843Z,950.62
2023-06-19T00:11:25.426Z,950.62
2023-06-19T00:12:25.405Z,950.60
2023-06-19T00:13:25.434Z,950.63
2023-06-19T00:14:25.396Z,950.65
2023-06-19T00:15:25.403Z,950.61
2023-06-19T00:16:25.509Z,950.60
2023-06-19T00:17:25.470Z,950.58
2023-06-19T00:18:25.349Z,950.59
2023-06-19T00:19:25.391Z,950.59
2023-06-19T00:20:25.736Z,950.58
2023-06-19T00:21:25.380Z,950.57
2023-06-19T00:22:25.278Z,950.56
2023-06-19T00:23:25.279Z,950.57
2023-06-19T00:24:25.348Z,950.59
2023-06-19T00:25:25.332Z,950.58
2023-06-19T00:26:25.288Z,950.56
2023-06-19T00:27:25.244Z,950.59
2023-06-19T00:28:25.209Z,950.56
2023-06-19T00:29:25.175Z,950.54
2023-06-19T00:30:25.487Z,950.53
2023-06-19T00:31:25.141Z,950.56
2023-06-19T00:32:25.150Z,950.56
2023-06-19T00:33:25.167Z,950.58
2023-06-19T00:34:25.110Z,950.56
2023-06-19T00:35:25.098Z,950.55
2023-06-19T00:36:25.078Z,950.54
2023-06-19T00:37:25.075Z,950.53
2023-06-19T00:38:25.055Z,950.57
2023-06-19T00:39:25.150Z,950.57
2023-06-19T00:40:25.315Z,950.58
2023-06-19T00:41:25.029Z,950.55
2023-06-19T00:42:24.996Z,950.54
2023-06-19T00:43:25.004Z,950.54
2023-06-19T00:44:24.997Z,950.51
2023-06-19T00:45:24.990Z,950.56
2023-06-19T00:46:25.083Z,950.57
2023-06-19T00:47:24.959Z,950.56
2023-06-19T00:48:24.949Z,950.57
2023-06-19T00:49:24.908Z,950.57
2023-06-19T00:50:25.243Z,950.52
2023-06-19T00:51:24.909Z,950.55
2023-06-19T00:52:24.937Z,950.57
2023-06-19T00:53:24.862Z,950.53
2023-06-19T00:54:24.857Z,950.54
2023-06-19T00:55:24.826Z,950.55
2023-06-19T00:56:24.806Z,950.57
2023-06-19T00:57:24.845Z,950.58
2023-06-19T00:58:24.801Z,950.59
2023-06-19T00:59:24.772Z,950.59
2023-06-19T01:00:24.974Z,950.57
2023-06-19T01:01:24.780Z,950.60
2023-06-19T01:02:25.022Z,950.56
2023-06-19T01:03:24.810Z,950.56
2023-06-19T01:04:24.728Z,950.57
2023-06-19T01:05:24.687Z,950.58
2023-06-19T01:06:24.696Z,950.59
2023-06-19T01:07:24.682Z,950.60
2023-06-19T01:08:24.657Z,950.60
2023-06-19T01:09:24.666Z,950.60
2023-06-19T01:10:24.810Z,950.63
2023-06-19T01:11:27.664Z,950.62
2023-06-19T01:12:24.608Z,950.63
2023-06-19T01:13:24.588Z,950.62
2023-06-19T01:14:24.600Z,950.61
2023-06-19T01:15:24.569Z,950.60
2023-06-19T01:16:24.561Z,950.58
2023-06-19T01:17:24.582Z,950.63
2023-06-19T01:18:24.510Z,950.59
2023-06-19T01:19:24.528Z,950.61
2023-06-19T01:20:24.766Z,950.63
2023-06-19T01:21:24.521Z,950.61
2023-06-19T01:22:24.582Z,950.60
2023-06-19T01:23:24.450Z,950.61
2023-06-19T01:24:24.489Z,950.61
2023-06-19T01:25:24.429Z,950.66
2023-06-19T01:26:24.419Z,950.65
2023-06-19T01:27:24.433Z,950.65
2023-06-19T01:28:24.395Z,950.67
2023-06-19T01:29:24.392Z,950.67
2023-06-19T01:30:24.653Z,950.64
2023-06-19T01:31:24.344Z,950.65
2023-06-19T01:32:24.348Z,950.66
2023-06-19T01:33:24.349Z,950.66
2023-06-19T01:34:24.305Z,950.64
2023-06-19T01:35:24.317Z,950.67
2023-06-19T01:36:24.281Z,950.70
2023-06-19T01:37:24.308Z,950.68
2023-06-19T01:38:24.274Z,950.70
2023-06-19T01:39:24.256Z,950.68
2023-06-19T01:40:24.460Z,950.67
2023-06-19T01:41:24.263Z,950.64
2023-06-19T01:42:24.194Z,950.69
2023-06-19T01:43:24.199Z,950.65
2023-06-19T01:44:24.163Z,950.62
2023-06-19T01:45:24.179Z,950.63
2023-06-19T01:46:24.171Z,950.61
2023-06-19T01:47:24.205Z,950.57
2023-06-19T01:48:24.160Z,950.58
2023-06-19T01:49:24.090Z,950.57
2023-06-19T01:50:24.338Z,950.58
2023-06-19T01:51:24.104Z,950.55
2023-06-19T01:52:24.074Z,950.56
2023-06-19T01:53:24.052Z,950.58
2023-06-19T01:54:24.078Z,950.61
2023-06-19T01:55:24.039Z,950.61
2023-06-19T01:56:24.022Z,950.61
2023-06-19T01:57:24.016Z,950.60
2023-06-19T01:58:23.977Z,950.56
2023-06-19T01:59:23.965Z,950.60
2023-06-19T02:00:24.197Z,950.59
2023-06-19T02:01:23.935Z,950.57
2023-06-19T02:02:23.977Z,950.52
2023-06-19T02:03:24.014Z,950.53
2023-06-19T02:04:23.896Z,950.52
2023-06-19T02:05:23.885Z,950.55
2023-06-19T02:06:23.900Z,950.57
2023-06-19T02:07:23.865Z,950.58
2023-06-19T02:08:23.861Z,950.58
2023-06-19T02:09:23.918Z,950.56
2023-06-19T02:10:24.036Z,950.55
2023-06-19T02:11:23.802Z,950.63
2023-06-19T02:12:23.778Z,950.61
2023-06-19T02:13:23.756Z,950.65
2023-06-19T02:14:23.758Z,950.61
2023-06-19T02:15:23.765Z,950.59
2023-06-19T02:16:23.775Z,950.58
2023-06-19T02:17:23.734Z,950.56
2023-06-19T02:18:23.716Z,950.58
2023-06-19T02:19:23.716Z,950.51
2023-06-19T02:20:24.058Z,950.55
2023-06-19T02:21:23.697Z,950.56
2023-06-19T02:22:23.645Z,950.60
2023-06-19T02:23:23.637Z,950.57
2023-06-19T02:24:23.667Z,950.62
2023-06-19T02:25:23.609Z,950.63
2023-06-19T02:26:23.598Z,950.60
2023-06-19T02:27:23.630Z,950.60
2023-06-19T02:28:23.569Z,950.62
2023-06-19T02:29:23.578Z,950.62
2023-06-19T02:30:23.882Z,950.58
2023-06-19T02:31:23.538Z,950.61
2023-06-19T02:32:23.588Z,950.62
2023-06-19T02:33:23.541Z,950.58
2023-06-19T02:34:23.495Z,950.62
2023-06-19T02:35:23.469Z,950.58
2023-06-19T02:36:23.471Z,950.63
2023-06-19T02:37:23.445Z,950.62
2023-06-19T02:38:23.439Z,950.61
2023-06-19T02:39:23.449Z,950.60
2023-06-19T02:40:23.770Z,950.59
2023-06-19T02:41:23.402Z,950.59
2023-06-19T02:42:23.414Z,950.59
2023-06-19T02:43:23.365Z,950.61
2023-06-19T02:44:23.421Z,950.59
2023-06-19T02:45:23.405Z,950.60
2023-06-19T02:46:23.408Z,950.58
2023-06-19T02:47:23.351Z,950.60
2023-06-19T02:48:23.284Z,950.59
2023-06-19T02:49:23.282Z,950.62
2023-06-19T02:50:23.564Z,950.60
2023-06-19T02:51:23.305Z,950.61
2023-06-19T02:52:23.232Z,950.65
2023-06-19T02:53:23.241Z,950.62
2023-06-19T02:54:23.227Z,950.59
2023-06-19T02:55:23.208Z,950.64
2023-06-19T02:56:23.209Z,950.61
2023-06-19T02:57:23.209Z,950.61
2023-06-19T02:58:23.170Z,950.63
2023-06-19T02:59:23.146Z,950.62
2023-06-19T03:00:23.419Z,950.66
2023-06-19T03:01:23.197Z,950.68
2023-06-19T03:02:23.233Z,950.66
2023-06-19T03:03:23.214Z,950.66
2023-06-19T03:04:23.086Z,950.71
2023-06-19T03:05:23.061Z,950.66
2023-06-19T03:06:23.080Z,950.71
2023-06-19T03:07:23.038Z,950.74
2023-06-19T03:08:23.060Z,950.68
2023-06-19T03:09:23.004Z,950.73
2023-06-19T03:10:23.473Z,950.73
2023-06-19T03:11:22.980Z,950.73
2023-06-19T03:12:22.990Z,950.70
2023-06-19T03:13:22.958Z,950.75
2023-06-19T03:14:22.979Z,950.79
2023-06-19T03:15:22.966Z,950.79
2023-06-19T03:16:22.943Z,950.82
2023-06-19T03:17:22.953Z,950.82
2023-06-19T03:18:22.895Z,950.80
2023-06-19T03:19:22.910Z,950.82
2023-06-19T03:20:23.228Z,950.82
2023-06-19T03:21:22.859Z,950.85
2023-06-19T03:22:22.860Z,950.84
2023-06-19T03:23:22.845Z,950.86
2023-06-19T03:24:22.835Z,950.90
2023-06-19T03:25:22.812Z,950.91
2023-06-19T03:26:22.846Z,950.90
2023-06-19T03:27:22.765Z,950.87
2023-06-19T03:28:22.762Z,950.90
2023-06-19T03:29:22.744Z,950.88
2023-06-19T03:30:22.953Z,950.87
2023-06-19T03:31:22.731Z,950.92
2023-06-19T03:32:22.789Z,950.92
2023-06-19T03:33:22.689Z,950.97
2023-06-19T03:34:22.669Z,951.00
2023-06-19T03:35:22.670Z,950.97
2023-06-19T03:36:22.640Z,950.97
2023-06-19T03:37:22.631Z,951.00
2023-06-19T03:38:22.654Z,950.97
2023-06-19T03:39:22.623Z,951.01
2023-06-19T03:40:22.945Z,950.99
2023-06-19T03:41:22.598Z,951.03
2023-06-19T03:42:22.562Z,951.06
2023-06-19T03:43:22.566Z,951.04
2023-06-19T03:44:22.565Z,951.06
2023-06-19T03:45:22.520Z,951.08
2023-06-19T03:46:22.532Z,951.05
2023-06-19T03:47:22.555Z,951.08
2023-06-19T03:48:22.489Z,951.07
2023-06-19T03:49:22.467Z,951.10
2023-06-19T03:50:27.214Z,951.09
2023-06-19T03:51:22.446Z,951.14
2023-06-19T03:52:22.420Z,951.11
2023-06-19T03:53:22.418Z,951.12
2023-06-19T03:54:22.406Z,951.17
2023-06-19T03:55:22.466Z,951.13
2023-06-19T03:56:22.389Z,951.16
2023-06-19T03:57:22.385Z,951.14
2023-06-19T03:58:22.356Z,951.19
2023-06-19T03:59:22.368Z,951.19
2023-06-19T04:00:22.556Z,951.19
2023-06-19T04:01:22.321Z,951.18
2023-06-19T04:02:22.300Z,951.22
2023-06-19T04:03:22.356Z,951.26
2023-06-19T04:04:22.259Z,951.18
2023-06-19T04:05:22.241Z,951.18
2023-06-19T04:06:22.222Z,951.23
2023-06-19T04:07:22.210Z,951.18
2023-06-19T04:08:22.238Z,951.23
2023-06-19T04:09:22.185Z,951.21
2023-06-19T04:10:22.561Z,951.24
2023-06-19T04:11:22.174Z,951.22
2023-06-19T04:12:22.161Z,951.25
2023-06-19T04:13:22.232Z,951.25
2023-06-19T04:14:22.321Z,951.26
2023-06-19T04:15:22.256Z,951.27
2023-06-19T04:16:22.146Z,951.24
2023-06-19T04:17:22.126Z,951.29
2023-06-19T04:18:22.092Z,951.28
2023-06-19T04:19:22.060Z,951.28
2023-06-19T04:20:22.340Z,951.29
2023-06-19T04:21:22.047Z,951.29
2023-06-19T04:22:22.016Z,951.31
2023-06-19T04:23:22.002Z,951.29
2023-06-19T04:24:22.013Z,951.31
2023-06-19T04:25:21.958Z,951.29
2023-06-19T04:26:21.993Z,951.31
2023-06-19T04:27:21.952Z,951.30
2023-06-19T04:28:21.964Z,951.28
2023-06-19T04:29:21.913Z,951.26
2023-06-19T04:30:22.071Z,951.27
2023-06-19T04:31:21.921Z,951.29
2023-06-19T04:32:21.939Z,951.32
2023-06-19T04:33:21.981Z,951.30
2023-06-19T04:34:21.874Z,951.32
2023-06-19T04:35:21.891Z,951.33
2023-06-19T04:36:21.839Z,951.27
2023-06-19T04:37:21.851Z,951.28
2023-06-19T04:38:21.789Z,951.28
2023-06-19T04:39:21.786Z,951.29
2023-06-19T04:40:22.010Z,951.27
2023-06-19T04:41:21.747Z,951.28
2023-06-19T04:42:21.770Z,951.30
2023-06-19T04:43:21.795Z,951.31
2023-06-19T04:44:21.708Z,951.31
2023-06-19T04:45:21.682Z,951.34
2023-06-19T04:46:21.892Z,951.34
2023-06-19T04:47:21.691Z,951.35
2023-06-19T04:48:21.687Z,951.34
2023-06-19T04:49:24.071Z,951.38
2023-06-19T04:50:22.001Z,951.39
2023-06-19T04:51:21.600Z,951.42
2023-06-19T04:52:21.603Z,951.40
2023-06-19T04:53:21.600Z,951.41
2023-06-19T04:54:21.593Z,951.44
2023-06-19T04:55:21.580Z,951.46
2023-06-19T04:56:21.540Z,951.40
2023-06-19T04:57:21.527Z,951.46
2023-06-19T04:58:21.537Z,951.47
2023-06-19T04:59:21.527Z,951.50
2023-06-19T05:00:21.542Z,951.52
2023-06-19T05:01:21.588Z,951.53
2023-06-19T05:02:21.516Z,951.56
2023-06-19T05:03:21.450Z,951.52
2023-06-19T05:04:21.533Z,951.50
2023-06-19T05:05:24.356Z,951.51
2023-06-19T05:06:21.427Z,951.53
2023-06-19T05:07:21.437Z,951.54
2023-06-19T05:08:21.391Z,951.58
2023-06-19T05:09:21.366Z,951.61
2023-06-19T05:10:21.542Z,951.64
2023-06-19T05:11:21.368Z,951.61
2023-06-19T05:12:21.442Z,951.59
2023-06-19T05:13:21.338Z,951.62
2023-06-19T05:14:21.308Z,951.62
2023-06-19T05:15:21.300Z,951.62
2023-06-19T05:16:21.346Z,951.56
2023-06-19T05:17:21.574Z,951.62
2023-06-19T05:18:21.266Z,951.57
2023-06-19T05:19:21.282Z,951.57
2023-06-19T05:20:21.329Z,951.61
2023-06-19T05:21:21.211Z,951.64
2023-06-19T05:22:21.207Z,951.64
2023-06-19T05:23:21.181Z,951.65
2023-06-19T05:24:21.190Z,951.66
2023-06-19T05:25:21.189Z,951.69
2023-06-19T05:26:21.136Z,951.64
2023-06-19T05:27:21.138Z,951.64
2023-06-19T05:28:21.113Z,951.66
2023-06-19T05:29:21.113Z,951.66
2023-06-19T05:30:21.167Z,951.65
2023-06-19T05:31:21.102Z,951.70
2023-06-19T05:32:21.086Z,951.71
2023-06-19T05:33:21.069Z,951.70
2023-06-19T05:34:21.082Z,951.73
2023-06-19T05:35:21.022Z,951.76
2023-06-19T05:36:21.003Z,951.75
2023-06-19T05:37:21.012Z,951.75
2023-06-19T05:38:20.968Z,951.77
2023-06-19T05:39:20.994Z,951.80
2023-06-19T05:40:21.016Z,951.86
2023-06-19T05:41:20.971Z,951.87
2023-06-19T05:42:20.921Z,951.85
2023-06-19T05:43:20.955Z,951.89
2023-06-19T05:44:20.912Z,951.90
2023-06-19T05:45:20.867Z,951.84
2023-06-19T05:46:20.962Z,951.87
2023-06-19T05:47:20.869Z,951.87
2023-06-19T05:48:20.844Z,951.88
2023-06-19T05:49:20.838Z,951.85
2023-06-19T05:50:20.822Z,951.88
2023-06-19T05:51:20.804Z,951.93
2023-06-19T05:52:20.776Z,951.93
2023-06-19T05:53:20.774Z,951.94
2023-06-19T05:54:20.762Z,951.99
2023-06-19T05:55:20.810Z,951.99
2023-06-19T05:56:20.714Z,952.00
2023-06-19T05:57:20.712Z,952.04
2023-06-19T05:58:20.706Z,952.07
2023-06-19T05:59:20.811Z,952.10
2023-06-19T06:00:20.701Z,952.10
2023-06-19T06:01:21.420Z,952.15
2023-06-19T06:02:20.733Z,952.14
2023-06-19T06:03:20.679Z,952.14
2023-06-19T06:04:20.795Z,952.15
2023-06-19T06:05:20.636Z,952.16
2023-06-19T06:06:20.631Z,952.16
2023-06-19T06:07:20.719Z,952.19
2023-06-19T06:08:20.651Z,952.23
2023-06-19T06:09:20.808Z,952.27
2023-06-19T06:10:20.631Z,952.31
2023-06-19T06:11:20.568Z,952.33
2023-06-19T06:12:20.629Z,952.38
2023-06-19T06:13:20.542Z,952.36
2023-06-19T06:14:20.685Z,952.42
2023-06-19T06:15:20.602Z,952.38
2023-06-19T06:16:20.698Z,952.37
2023-06-19T06:17:20.506Z,952.38
2023-06-19T06:18:20.519Z,952.38
2023-06-19T06:19:20.456Z,952.37
2023-06-19T06:20:20.412Z,952.40
2023-06-19T06:21:20.406Z,952.44
2023-06-19T06:22:20.393Z,952.40
2023-06-19T06:23:20.381Z,952.42
2023-06-19T06:24:20.450Z,952.42
2023-06-19T06:25:20.337Z,952.44
2023-06-19T06:26:20.324Z,952.42
2023-06-19T06:27:20.321Z,952.43
2023-06-19T06:28:20.326Z,952.43
2023-06-19T06:29:20.286Z,952.44
2023-06-19T06:30:20.685Z,952.45
2023-06-19T06:31:20.260Z,952.46
2023-06-19T06:32:20.255Z,952.49
2023-06-19T06:33:20.213Z,952.49
2023-06-19T06:34:20.235Z,952.47
2023-06-19T06:35:20.209Z,952.50
2023-06-19T06:36:33.717Z,952.50
2023-06-19T06:37:20.169Z,952.49
2023-06-19T06:38:20.153Z,952.51
2023-06-19T06:39:20.165Z,952.52
2023-06-19T06:40:20.155Z,952.53
2023-06-19T06:41:20.187Z,952.50
2023-06-19T06:42:20.104Z,952.49
2023-06-19T06:43:20.125Z,952.47
2023-06-19T06:44:20.063Z,952.43
2023-06-19T06:45:20.120Z,952.43
2023-06-19T06:46:20.216Z,952.46
2023-06-19T06:47:20.017Z,952.43
2023-06-19T06:48:20.061Z,952.50
2023-06-19T06:49:20.079Z,952.52
2023-06-19T06:50:19.988Z,952.51
2023-06-19T06:51:20.036Z,952.47
2023-06-19T06:52:19.977Z,952.50
2023-06-19T06:53:19.948Z,952.47
2023-06-19T06:54:19.956Z,952.50
2023-06-19T06:55:19.908Z,952.46
2023-06-19T06:56:19.924Z,952.44
2023-06-19T06:57:19.914Z,952.40
2023-06-19T06:58:19.889Z,952.46
2023-06-19T06:59:19.851Z,952.53
2023-06-19T07:00:19.845Z,952.55
2023-06-19T07:01:19.873Z,952.55
2023-06-19T07:02:19.956Z,952.62
2023-06-19T07:03:20.117Z,952.65
2023-06-19T07:04:19.794Z,952.63
2023-06-19T07:05:19.780Z,952.66
2023-06-19T07:06:19.778Z,952.62
2023-06-19T07:07:19.767Z,952.70
2023-06-19T07:08:19.763Z,952.71
2023-06-19T07:09:19.779Z,952.72
2023-06-19T07:10:19.720Z,952.66
2023-06-19T07:11:19.712Z,952.66
2023-06-19T07:12:19.696Z,952.64
2023-06-19T07:13:19.695Z,952.65
2023-06-19T07:14:19.668Z,952.70
2023-06-19T07:15:19.675Z,952.69
2023-06-19T07:16:19.650Z,952.69
2023-06-19T07:17:21.266Z,952.70
2023-06-19T07:18:19.636Z,952.71
2023-06-19T07:19:19.597Z,952.73
2023-06-19T07:20:19.568Z,952.73
2023-06-19T07:21:19.592Z,952.74
2023-06-19T07:22:19.557Z,952.77
2023-06-19T07:23:19.525Z,952.76
2023-06-19T07:24:19.553Z,952.77
2023-06-19T07:25:19.503Z,952.72
2023-06-19T07:26:19.502Z,952.71
2023-06-19T07:27:19.533Z,952.74
2023-06-19T07:28:19.473Z,952.74
2023-06-19T07:29:19.457Z,952.73
2023-06-19T07:30:19.450Z,952.74
2023-06-19T07:31:19.423Z,952.78
2023-06-19T07:32:19.423Z,952.75
2023-06-19T07:33:19.480Z,952.77
2023-06-19T07:34:19.394Z,952.75
2023-06-19T07:35:19.391Z,952.80
2023-06-19T07:36:19.373Z,952.76
2023-06-19T07:37:19.364Z,952.78
2023-06-19T07:38:19.334Z,952.75
2023-06-19T07:39:19.361Z,952.77
2023-06-19T07:40:19.295Z,952.72
2023-06-19T07:41:19.298Z,952.77
2023-06-19T07:42:19.337Z,952.79
2023-06-19T07:43:19.272Z,952.78
2023-06-19T07:44:19.247Z,952.81
2023-06-19T07:45:19.293Z,952.80
2023-06-19T07:46:19.245Z,952.82
2023-06-19T07:47:19.202Z,952.79
2023-06-19T07:48:19.200Z,952.80
2023-06-19T07:49:19.196Z,952.81
2023-06-19T07:50:19.161Z,952.83
2023-06-19T07:51:19.190Z,952.84
2023-06-19T07:52:19.151Z,952.81
2023-06-19T07:53:19.150Z,952.81
2023-06-19T07:54:19.138Z,952.80
2023-06-19T07:55:19.168Z,952.73
2023-06-19T07:56:19.120Z,952.71
2023-06-19T07:57:19.105Z,952.70
2023-06-19T07:58:19.077Z,952.71
2023-06-19T07:59:19.070Z,952.69
2023-06-19T08:00:19.040Z,952.70
2023-06-19T08:01:19.037Z,952.73
2023-06-19T08:02:19.141Z,952.73
2023-06-19T08:03:19.123Z,952.70
2023-06-19T08:04:19.077Z,952.74
2023-06-19T08:05:18.985Z,952.73
2023-06-19T08:06:18.962Z,952.77
2023-06-19T08:07:18.961Z,952.78
2023-06-19T08:08:18.981Z,952.77
2023-06-19T08:09:18.944Z,952.79
2023-06-19T08:10:18.914Z,952.77
2023-06-19T08:11:18.906Z,952.75
2023-06-19T08:12:18.923Z,952.78
2023-06-19T08:13:18.888Z,952.81
2023-06-19T08:14:18.885Z,952.82
2023-06-19T08:15:18.850Z,952.76
2023-06-19T08:16:18.889Z,952.81
2023-06-19T08:17:19.072Z,952.78
2023-06-19T08:18:18.840Z,952.75
2023-06-19T08:19:18.787Z,952.76
2023-06-19T08:20:18.809Z,952.76
2023-06-19T08:21:18.843Z,952.75
2023-06-19T08:22:18.751Z,952.77
2023-06-19T08:23:18.755Z,952.74
2023-06-19T08:24:18.768Z,952.73
2023-06-19T08:25:18.712Z,952.79
2023-06-19T08:26:18.710Z,952.80
2023-06-19T08:27:18.675Z,952.77
2023-06-19T08:28:18.651Z,952.75
2023-06-19T08:29:18.648Z,952.75
2023-06-19T08:30:18.617Z,952.77
2023-06-19T08:31:18.612Z,952.75
2023-06-19T08:32:18.622Z,952.71
2023-06-19T08:33:18.577Z,952.75
2023-06-19T08:34:18.576Z,952.69
2023-06-19T08:35:18.564Z,952.72
2023-06-19T08:36:18.573Z,952.70
2023-06-19T08:37:18.540Z,952.70
2023-06-19T08:38:18.550Z,952.70
2023-06-19T08:39:18.511Z,952.71
2023-06-19T08:40:18.507Z,952.72
2023-06-19T08:41:18.488Z,952.69
2023-06-19T08:42:18.465Z,952.69
2023-06-19T08:43:18.446Z,952.71
2023-06-19T08:44:18.484Z,952.69
2023-06-19T08:45:18.433Z,952.72
2023-06-19T08:46:18.453Z,952.73
2023-06-19T08:47:18.406Z,952.72
2023-06-19T08:48:18.378Z,952.74
2023-06-19T08:49:18.380Z,952.75
2023-06-19T08:50:20.782Z,952.76
2023-06-19T08:51:18.350Z,952.76
2023-06-19T08:52:18.346Z,952.77
2023-06-19T08:53:18.322Z,952.74
2023-06-19T08:54:18.309Z,952.77
2023-06-19T08:55:18.362Z,952.75
2023-06-19T08:56:18.361Z,952.75
2023-06-19T08:57:18.288Z,952.72
2023-06-19T08:58:18.265Z,952.71
2023-06-19T08:59:18.285Z,952.73
2023-06-19T09:00:18.223Z,952.73
2023-06-19T09:01:18.228Z,952.72
2023-06-19T09:02:18.331Z,952.71
2023-06-19T09:03:18.306Z,952.72
2023-06-19T09:04:18.192Z,952.69
2023-06-19T09:05:18.205Z,952.69
2023-06-19T09:06:18.231Z,952.67
2023-06-19T09:07:18.233Z,952.68
2023-06-19T09:08:18.161Z,952.64
2023-06-19T09:09:18.123Z,952.62
2023-06-19T09:10:18.093Z,952.70
2023-06-19T09:11:18.105Z,952.62
2023-06-19T09:12:18.074Z,952.62
2023-06-19T09:13:18.048Z,952.63
2023-06-19T09:14:18.058Z,952.64
2023-06-19T09:15:18.050Z,952.62
2023-06-19T09:16:18.036Z,952.62
2023-06-19T09:17:18.029Z,952.64
2023-06-19T09:18:17.987Z,952.62
2023-06-19T09:19:17.964Z,952.64
2023-06-19T09:20:18.016Z,952.64
2023-06-19T09:21:17.952Z,952.65
2023-06-19T09:22:17.940Z,952.59
2023-06-19T09:23:17.943Z,952.59
2023-06-19T09:24:17.901Z,952.55
2023-06-19T09:25:17.928Z,952.58
2023-06-19T09:26:17.880Z,952.55
2023-06-19T09:27:17.872Z,952.55
2023-06-19T09:28:17.862Z,952.58
2023-06-19T09:29:20.205Z,952.55
2023-06-19T09:30:17.848Z,952.53
2023-06-19T09:31:17.852Z,952.56
2023-06-19T09:32:17.791Z,952.51
2023-06-19T09:33:17.884Z,952.53
2023-06-19T09:34:17.778Z,952.52
2023-06-19T09:35:17.769Z,952.48
2023-06-19T09:36:17.755Z,952.46
2023-06-19T09:37:17.852Z,952.45
2023-06-19T09:38:17.785Z,952.46
2023-06-19T09:39:17.719Z,952.45
2023-06-19T09:40:17.700Z,952.42
2023-06-19T09:41:17.686Z,952.46
2023-06-19T09:42:17.694Z,952.46
2023-06-19T09:43:17.681Z,952.43
2023-06-19T09:44:17.642Z,952.45
2023-06-19T09:45:17.647Z,952.46
2023-06-19T09:46:17.612Z,952.47
2023-06-19T09:47:17.689Z,952.48
2023-06-19T09:48:17.674Z,952.46
2023-06-19T09:49:17.626Z,952.40
2023-06-19T09:50:17.578Z,952.40
2023-06-19T09:51:17.561Z,952.41
2023-06-19T09:52:17.538Z,952.39
2023-06-19T09:53:17.534Z,952.39
2023-06-19T09:54:17.517Z,952.40
2023-06-19T09:55:17.538Z,952.44
2023-06-19T09:56:17.567Z,952.46
2023-06-19T09:57:17.474Z,952.41
2023-06-19T09:58:17.489Z,952.40
2023-06-19T09:59:17.455Z,952.39
2023-06-19T10:00:17.453Z,952.41
2023-06-19T10:01:17.454Z,952.37
2023-06-19T10:02:17.488Z,952.38
2023-06-19T10:03:17.513Z,952.39
2023-06-19T10:04:17.473Z,952.40
2023-06-19T10:05:17.371Z,952.36
2023-06-19T10:06:17.411Z,952.37
2023-06-19T10:07:17.379Z,952.33
2023-06-19T10:08:17.326Z,952.29
2023-06-19T10:09:17.339Z,952.28
2023-06-19T10:10:17.302Z,952.31
2023-06-19T10:11:17.286Z,952.28
2023-06-19T10:12:17.278Z,952.29
2023-06-19T10:13:17.287Z,952.23
2023-06-19T10:14:17.259Z,952.32
2023-06-19T10:15:17.292Z,952.33
2023-06-19T10:16:17.266Z,952.34
2023-06-19T10:17:17.259Z,952.31
2023-06-19T10:18:17.205Z,952.35
2023-06-19T10:19:17.221Z,952.31
2023-06-19T10:20:17.161Z,952.28
2023-06-19T10:21:17.164Z,952.29
2023-06-19T10:22:17.136Z,952.31
2023-06-19T10:23:17.125Z,952.28
2023-06-19T10:24:17.149Z,952.27
2023-06-19T10:25:17.162Z,952.27
2023-06-19T10:26:17.124Z,952.29
2023-06-19T10:27:17.081Z,952.30
2023-06-19T10:28:17.065Z,952.29
2023-06-19T10:29:17.053Z,952.29
2023-06-19T10:30:17.115Z,952.25
2023-06-19T10:31:17.054Z,952.25
2023-06-19T10:32:17.033Z,952.18
2023-06-19T10:33:16.988Z,952.16
2023-06-19T10:34:16.995Z,952.15
2023-06-19T10:35:16.981Z,952.18
2023-06-19T10:36:16.974Z,952.14
2023-06-19T10:37:16.968Z,952.14
2023-06-19T10:38:16.936Z,952.22
2023-06-19T10:39:16.916Z,952.18
2023-06-19T10:40:16.936Z,952.12
2023-06-19T10:41:16.898Z,952.15
2023-06-19T10:42:16.881Z,952.15
2023-06-19T10:43:16.892Z,952.14
2023-06-19T10:44:16.874Z,952.11
2023-06-19T10:45:16.840Z,952.11
2023-06-19T10:46:16.851Z,952.13
2023-06-19T10:47:16.809Z,952.10
2023-06-19T10:48:16.816Z,952.10
2023-06-19T10:49:16.855Z,952.08
2023-06-19T10:50:16.855Z,952.05
2023-06-19T10:51:16.769Z,952.04
2023-06-19T10:52:16.752Z,952.03
2023-06-19T10:53:16.747Z,952.01
2023-06-19T10:54:16.716Z,952.03
2023-06-19T10:55:16.721Z,952.04
2023-06-19T10:56:16.773Z,951.98
2023-06-19T10:57:16.685Z,952.04
2023-06-19T10:58:16.747Z,952.03
2023-06-19T10:59:16.652Z,952.00
2023-06-19T11:00:16.672Z,952.02
2023-06-19T11:01:16.664Z,952.00
2023-06-19T11:02:16.699Z,951.98
2023-06-19T11:03:16.767Z,951.98
2023-06-19T11:04:16.602Z,951.91
2023-06-19T11:05:16.567Z,951.90
2023-06-19T11:06:16.564Z,951.85
2023-06-19T11:07:16.567Z,951.84
2023-06-19T11:08:16.562Z,951.82
2023-06-19T11:09:16.529Z,951.83
2023-06-19T11:10:16.511Z,951.82
2023-06-19T11:11:16.508Z,951.81
2023-06-19T11:12:16.509Z,951.81
2023-06-19T11:13:16.531Z,951.78
2023-06-19T11:14:16.491Z,951.76
2023-06-19T11:15:16.503Z,951.78
2023-06-19T11:16:24.339Z,951.75
2023-06-19T11:17:16.664Z,951.76
2023-06-19T11:18:16.404Z,951.74
2023-06-19T11:19:16.432Z,951.80
2023-06-19T11:20:16.380Z,951.75
2023-06-19T11:21:16.377Z,951.80
2023-06-19T11:22:16.357Z,951.77
2023-06-19T11:23:16.362Z,951.80
2023-06-19T11:24:16.377Z,951.78
2023-06-19T11:25:16.371Z,951.78
2023-06-19T11:26:16.301Z,951.75
2023-06-19T11:27:16.283Z,951.74
2023-06-19T11:28:16.267Z,951.78
2023-06-19T11:29:16.269Z,951.75
2023-06-19T11:30:16.254Z,951.76
2023-06-19T11:31:16.396Z,951.73
2023-06-19T11:32:16.241Z,951.73
2023-06-19T11:33:16.220Z,951.72
2023-06-19T11:34:16.199Z,951.76
2023-06-19T11:35:16.243Z,951.72
2023-06-19T11:36:16.161Z,951.68
2023-06-19T11:37:16.218Z,951.70
2023-06-19T11:38:16.136Z,951.67
2023-06-19T11:39:16.130Z,951.62
2023-06-19T11:40:16.221Z,951.63
2023-06-19T11:41:16.104Z,951.61
2023-06-19T11:42:16.090Z,951.58
2023-06-19T11:43:16.112Z,951.54
2023-06-19T11:44:16.142Z,951.53
2023-06-19T11:45:16.063Z,951.54
2023-06-19T11:46:16.084Z,951.57
2023-06-19T11:47:16.026Z,951.55
2023-06-19T11:48:16.077Z,951.52
2023-06-19T11:49:16.039Z,951.50
2023-06-19T11:50:15.984Z,951.43
2023-06-19T11:51:16.038Z,951.46
2023-06-19T11:52:15.969Z,951.45
2023-06-19T11:53:15.954Z,951.44
2023-06-19T11:54:16.081Z,951.43
2023-06-19T11:55:15.967Z,951.34
2023-06-19T11:56:15.936Z,951.39
2023-06-19T11:57:15.907Z,951.36
2023-06-19T11:58:15.889Z,951.38
2023-06-19T11:59:15.888Z,951.38
2023-06-19T12:00:16.573Z,951.38
2023-06-19T12:01:15.851Z,951.36
2023-06-19T12:02:15.925Z,951.39
2023-06-19T12:03:15.968Z,951.40
2023-06-19T12:04:15.950Z,951.35
2023-06-19T12:05:15.812Z,951.34
2023-06-19T12:06:15.802Z,951.34
2023-06-19T12:07:15.789Z,951.35
2023-06-19T12:08:15.761Z,951.33
2023-06-19T12:09:15.748Z,951.35
2023-06-19T12:10:15.741Z,951.30
2023-06-19T12:11:15.779Z,951.28
2023-06-19T12:12:15.734Z,951.29
2023-06-19T12:13:15.696Z,951.27
2023-06-19T12:14:15.692Z,951.24
2023-06-19T12:15:15.764Z,951.26
2023-06-19T12:16:15.689Z,951.22
2023-06-19T12:17:15.740Z,951.22
2023-06-19T12:18:15.662Z,951.23
2023-06-19T12:19:20.804Z,951.24
2023-06-19T12:20:15.643Z,951.20
2023-06-19T12:21:29.704Z,951.20
2023-06-19T12:22:15.586Z,951.20
2023-06-19T12:23:15.554Z,951.21
2023-06-19T12:24:15.662Z,951.22
2023-06-19T12:25:15.541Z,951.18
2023-06-19T12:26:15.526Z,951.14
2023-06-19T12:27:15.505Z,951.22
2023-06-19T12:28:15.514Z,951.20